Time;durP1;ratioP1;P1;durP2;ratioP2;P2;SDS_P1;SDS_P2;PMS_P1;PMS_P2;Temp;Humidity;BMP_temperature;BMP_pressure;BME280_temperature;BME280_humidity;BME280_pressure;Samples;Min_cycle;Max_cycle;Signal;HPM_P1;HPM_P2
2021/04/13 00:00:34;;;;;;;6.93;1.73;;;2.60;88.70;;;;;;5053365;28;20068;-48
2021/04/13 00:03:09;;;;;;;5.75;1.40;;;2.60;89.00;;;;;;5046496;28;20063;-47
2021/04/13 00:05:47;;;;;;;8.57;1.70;;;2.60;88.80;;;;;;5063687;28;20041;-47
2021/04/13 00:08:18;;;;;;;6.00;1.85;;;2.60;89.00;;;;;;5054355;28;20068;-49
2021/04/13 00:10:50;;;;;;;4.93;1.88;;;2.60;88.90;;;;;;5063983;28;20039;-48
2021/04/13 00:13:17;;;;;;;4.30;1.52;;;2.60;89.10;;;;;;5055950;28;20112;-48
2021/04/13 00:15:51;;;;;;;6.78;1.63;;;2.60;88.90;;;;;;5050639;28;20064;-47
2021/04/13 00:18:25;;;;;;;4.47;1.50;;;2.60;89.00;;;;;;5055184;28;20063;-47
2021/04/13 00:21:18;;;;;;;5.47;1.20;;;2.50;89.00;;;;;;5056859;28;20045;-46
2021/04/13 00:23:44;;;;;;;6.32;1.38;;;2.60;89.00;;;;;;5052151;28;20045;-47
2021/04/13 00:26:20;;;;;;;6.78;1.50;;;2.50;89.20;;;;;;5050688;28;20060;-47
2021/04/13 00:28:47;;;;;;;3.65;1.33;;;2.50;89.60;;;;;;5052843;28;20128;-47
2021/04/13 00:31:44;;;;;;;4.65;1.50;;;2.50;89.40;;;;;;5050548;28;20075;-47
2021/04/13 00:34:22;;;;;;;6.75;1.65;;;2.40;89.40;;;;;;5053229;28;20057;-47
2021/04/13 00:36:51;;;;;;;5.90;1.60;;;2.40;89.80;;;;;;5052715;28;20460;-48
2021/04/13 00:39:35;;;;;;;6.97;1.75;;;2.40;89.60;;;;;;5052070;28;20041;-49
2021/04/13 00:42:04;;;;;;;6.95;1.60;;;2.50;89.60;;;;;;5042545;28;20075;-48
2021/04/13 00:44:34;;;;;;;6.05;1.75;;;2.50;90.00;;;;;;5053462;28;20075;-47
2021/04/13 00:47:05;;;;;;;6.05;1.60;;;2.50;90.00;;;;;;5051452;28;20466;-47
2021/04/13 00:49:34;;;;;;;9.38;1.83;;;2.50;89.70;;;;;;5051490;28;20041;-47
2021/04/13 00:52:05;;;;;;;8.90;1.60;;;2.50;89.90;;;;;;5050866;28;20494;-47
2021/04/13 00:54:56;;;;;;;9.43;1.75;;;2.50;90.00;;;;;;5053787;28;20033;-47
2021/04/13 00:57:23;;;;;;;8.50;1.50;;;2.50;89.80;;;;;;5032005;28;20391;-47
2021/04/13 00:59:51;;;;;;;6.53;1.40;;;2.50;89.50;;;;;;5051361;28;20045;-48
2021/04/13 01:02:24;;;;;;;6.05;1.50;;;2.50;89.60;;;;;;5018519;28;20453;-46
2021/04/13 01:05:02;;;;;;;5.60;1.57;;;2.50;89.90;;;;;;5046768;28;20508;-47
2021/04/13 01:07:35;;;;;;;7.85;1.65;;;2.50;89.80;;;;;;5057212;28;20683;-47
2021/04/13 01:10:12;;;;;;;8.25;1.90;;;2.50;89.60;;;;;;5056090;28;20252;-46
2021/04/13 01:12:41;;;;;;;6.57;1.48;;;2.40;89.60;;;;;;5052198;28;20037;-47
2021/04/13 01:15:12;;;;;;;6.65;1.58;;;2.40;89.80;;;;;;5063737;28;20083;-49
2021/04/13 01:17:40;;;;;;;8.55;1.40;;;2.40;90.00;;;;;;5045173;28;20045;-47
2021/04/13 01:20:15;;;;;;;7.97;1.25;;;2.40;90.10;;;;;;5044362;28;20084;-47
2021/04/13 01:25:33;;;;;;;8.27;1.40;;;2.40;90.20;;;;;;5048212;28;20138;-47
2021/04/13 01:28:20;;;;;;;10.18;1.77;;;2.50;90.10;;;;;;5054798;28;20098;-47
2021/04/13 01:35:03;;;;;;;9.98;1.80;;;2.50;90.00;;;;;;5045375;28;20041;-46
2021/04/13 01:40:04;;;;;;;5.57;1.42;;;2.50;90.00;;;;;;5055998;28;20128;-46
2021/04/13 01:42:32;;;;;;;9.25;1.45;;;2.50;90.00;;;;;;5047557;28;20037;-46
2021/04/13 01:45:05;;;;;;;6.15;1.60;;;2.50;90.00;;;;;;5055397;28;20152;-47
2021/04/13 01:47:31;;;;;;;;;;;2.50;90.00;;;;;;5055698;28;20037;-48
2021/04/13 01:50:01;;;;;;;8.00;1.58;;;2.40;90.20;;;;;;5050376;28;19995;-48
2021/04/13 01:52:32;;;;;;;9.18;1.67;;;2.40;90.00;;;;;;5050577;28;20063;-47
2021/04/13 01:55:04;;;;;;;9.93;1.60;;;2.50;90.10;;;;;;5047677;28;20048;-47
2021/04/13 01:57:55;;;;;;;6.97;1.63;;;2.40;90.10;;;;;;5054919;28;20064;-47
2021/04/13 02:00:31;;;;;;;8.27;1.50;;;2.40;90.20;;;;;;5052570;28;20048;-47
2021/04/13 02:03:26;;;;;;;3.53;1.38;;;2.40;90.30;;;;;;5046691;28;20041;-47
2021/04/13 02:05:59;;;;;;;7.10;1.48;;;2.40;90.20;;;;;;5053864;28;20056;-47
2021/04/13 02:08:39;;;;;;;7.80;1.70;;;2.40;90.30;;;;;;5059576;28;20262;-47
2021/04/13 02:11:25;;;;;;;9.10;1.50;;;2.40;90.40;;;;;;5060529;28;20594;-47
2021/04/13 02:14:02;;;;;;;8.98;1.80;;;2.50;90.60;;;;;;5067515;28;20061;-47
2021/04/13 02:16:28;;;;;;;8.10;2.10;;;2.50;90.60;;;;;;5055138;28;20052;-46
2021/04/13 02:18:55;;;;;;;7.35;1.70;;;2.50;90.40;;;;;;5047598;28;20040;-47
2021/04/13 02:21:30;;;;;;;7.05;1.98;;;2.50;90.50;;;;;;5048378;28;20028;-48
2021/04/13 02:24:00;;;;;;;7.18;1.70;;;2.60;90.80;;;;;;5058552;28;20041;-48
2021/04/13 02:26:26;;;;;;;10.05;1.60;;;2.60;90.50;;;;;;5053441;28;20098;-47
2021/04/13 02:28:54;;;;;;;7.30;1.40;;;2.60;90.50;;;;;;5051536;28;20037;-47
2021/04/13 02:31:36;;;;;;;7.97;1.70;;;2.60;90.40;;;;;;5052634;28;20549;-46
2021/04/13 02:34:24;;;;;;;4.95;1.40;;;2.50;90.50;;;;;;5052991;28;20470;-47
2021/04/13 02:36:54;;;;;;;8.23;1.60;;;2.60;90.60;;;;;;5048672;28;20040;-47
2021/04/13 02:39:25;;;;;;;5.32;1.42;;;2.60;90.50;;;;;;5058205;28;20051;-46
2021/04/13 02:42:05;;;;;;;12.35;1.73;;;2.60;90.40;;;;;;5059258;28;20037;-48
2021/04/13 02:44:31;;;;;;;4.50;1.30;;;2.60;90.40;;;;;;5042823;28;20417;-48
2021/04/13 02:47:01;;;;;;;7.10;1.40;;;2.60;90.30;;;;;;5051886;28;20041;-47
2021/04/13 02:49:29;;;;;;;6.60;1.30;;;2.70;90.40;;;;;;5033538;28;20042;-46
2021/04/13 02:52:03;;;;;;;7.38;1.55;;;2.70;90.50;;;;;;5050258;28;20060;-47
2021/04/13 02:54:37;;;;;;;7.85;1.42;;;2.70;90.50;;;;;;5062140;28;20094;-47
2021/04/13 02:57:18;;;;;;;8.68;1.75;;;2.70;90.40;;;;;;5052955;28;20041;-47
2021/04/13 02:59:43;;;;;;;5.13;1.13;;;2.70;90.50;;;;;;5049895;28;20043;-48
2021/04/13 03:02:17;;;;;;;9.45;1.40;;;2.70;90.50;;;;;;5048562;28;20485;-49
2021/04/13 03:04:50;;;;;;;7.53;1.60;;;2.70;90.50;;;;;;5040499;28;20390;-48
2021/04/13 03:07:22;;;;;;;11.13;1.95;;;2.70;90.50;;;;;;5052031;28;20041;-46
2021/04/13 03:09:53;;;;;;;;;;;2.70;90.60;;;;;;5048748;28;20444;-47
2021/04/13 03:12:20;;;;;;;6.47;1.10;;;2.70;90.60;;;;;;5052171;28;20014;-48
2021/04/13 03:14:54;;;;;;;9.18;1.50;;;2.60;90.60;;;;;;5059479;28;20037;-48
2021/04/13 03:17:24;;;;;;;9.57;1.80;;;2.60;90.50;;;;;;5055670;28;20045;-47
2021/04/13 03:19:52;;;;;;;7.88;1.67;;;2.60;90.50;;;;;;5040967;28;20041;-47
2021/04/13 03:22:19;;;;;;;9.48;1.88;;;2.60;90.60;;;;;;5051934;28;20049;-49
2021/04/13 03:24:48;;;;;;;6.85;1.55;;;2.60;90.60;;;;;;5044012;28;20045;-48
2021/04/13 03:27:20;;;;;;;11.00;1.52;;;2.60;90.60;;;;;;5034412;28;20037;-48
2021/04/13 03:29:58;;;;;;;9.80;1.50;;;2.60;90.60;;;;;;5046202;28;20165;-48
2021/04/13 03:32:29;;;;;;;5.78;1.35;;;2.50;90.70;;;;;;5040917;28;20269;-48
2021/04/13 03:34:55;;;;;;;6.20;1.50;;;2.50;90.80;;;;;;5036324;28;20117;-47
2021/04/13 03:37:22;;;;;;;7.90;1.77;;;2.50;90.80;;;;;;5051216;28;20065;-47
2021/04/13 03:39:49;;;;;;;7.00;1.30;;;2.50;90.70;;;;;;5060501;28;20044;-48
2021/04/13 03:42:21;;;;;;;5.15;1.48;;;2.50;90.80;;;;;;5054032;28;20028;-46
2021/04/13 03:44:49;;;;;;;4.47;1.40;;;2.40;90.70;;;;;;5055391;28;20048;-49
2021/04/13 03:47:18;;;;;;;9.35;1.60;;;2.40;90.70;;;;;;5058663;28;20553;-48
2021/04/13 03:49:45;;;;;;;6.95;1.48;;;2.40;90.80;;;;;;5048059;28;20231;-48
2021/04/13 03:52:14;;;;;;;5.00;1.67;;;2.30;90.80;;;;;;5063508;28;20484;-48
2021/04/13 03:54:41;;;;;;;6.63;1.60;;;2.30;90.80;;;;;;5067902;28;20053;-47
2021/04/13 03:57:08;;;;;;;6.57;1.67;;;2.20;90.80;;;;;;5048708;28;20053;-47
2021/04/13 03:59:42;;;;;;;9.35;1.48;;;2.20;90.90;;;;;;5051231;28;20075;-46
2021/04/13 04:02:08;;;;;;;3.65;1.40;;;2.20;90.90;;;;;;5047327;28;20065;-48
2021/04/13 04:04:41;;;;;;;3.35;1.40;;;2.10;90.90;;;;;;5050972;28;20069;-47
2021/04/13 04:07:24;;;;;;;;;;;2.10;90.80;;;;;;5046455;28;20041;-47
2021/04/13 04:09:51;;;;;;;5.82;1.55;;;2.00;90.70;;;;;;5039841;28;20363;-46
2021/04/13 04:12:28;;;;;;;17.48;1.70;;;2.00;90.70;;;;;;5051474;28;20041;-46
2021/04/13 04:15:08;;;;;;;7.43;2.03;;;2.00;90.80;;;;;;5052673;28;20041;-47
2021/04/13 04:17:36;;;;;;;12.77;1.70;;;2.00;91.00;;;;;;5062568;28;20461;-48
2021/04/13 04:20:10;;;;;;;9.75;2.38;;;2.00;91.00;;;;;;5052149;28;20071;-48
2021/04/13 04:22:48;;;;;;;11.18;2.10;;;2.00;91.00;;;;;;5067900;28;20036;-48
2021/04/13 04:25:29;;;;;;;7.70;1.98;;;2.00;91.10;;;;;;5060012;28;20452;-48
2021/04/13 04:27:57;;;;;;;9.88;2.00;;;2.00;91.00;;;;;;5061375;28;20037;-47
2021/04/13 04:30:24;;;;;;;12.35;1.85;;;2.10;91.10;;;;;;5044215;28;20063;-48
2021/04/13 04:32:52;;;;;;;9.48;1.92;;;2.00;91.00;;;;;;5053122;28;20094;-49
2021/04/13 04:35:40;;;;;;;13.20;2.30;;;2.00;91.00;;;;;;5050980;28;20409;-48
2021/04/13 04:38:24;;;;;;;14.57;2.17;;;2.10;91.20;;;;;;5051450;28;20040;-47
2021/04/13 04:40:57;;;;;;;15.75;2.47;;;2.10;91.00;;;;;;5049828;28;20072;-48
2021/04/13 04:43:43;;;;;;;;;;;2.10;91.30;;;;;;5051477;28;20044;-47
2021/04/13 04:46:09;;;;;;;11.88;2.10;;;2.10;91.40;;;;;;5051606;28;20462;-47
2021/04/13 04:48:37;;;;;;;13.27;1.83;;;2.10;91.20;;;;;;5046949;28;20517;-47
2021/04/13 04:51:09;;;;;;;12.23;2.22;;;2.20;91.10;;;;;;5041168;28;20474;-46
2021/04/13 04:53:36;;;;;;;13.65;2.20;;;2.20;91.10;;;;;;5038268;28;20047;-46
2021/04/13 04:56:09;;;;;;;15.32;2.10;;;2.20;91.10;;;;;;5045301;28;20041;-46
2021/04/13 04:58:35;;;;;;;7.97;1.90;;;2.30;90.80;;;;;;5037939;28;20170;-47
2021/04/13 05:01:02;;;;;;;12.32;1.80;;;2.30;90.90;;;;;;5034461;28;20048;-47
2021/04/13 05:03:29;;;;;;;13.45;2.15;;;2.30;90.80;;;;;;5036620;28;20087;-48
2021/04/13 05:05:56;;;;;;;12.82;2.33;;;2.30;90.80;;;;;;5034560;28;20045;-49
2021/04/13 05:08:25;;;;;;;19.27;2.88;;;2.30;90.90;;;;;;5045056;28;20041;-48
2021/04/13 05:10:51;;;;;;;12.52;2.38;;;2.30;90.80;;;;;;5057037;28;20063;-50
2021/04/13 05:13:19;;;;;;;9.20;1.60;;;2.40;90.90;;;;;;5044694;28;20158;-47
2021/04/13 05:15:45;;;;;;;12.40;2.25;;;2.40;91.00;;;;;;5045972;28;20037;-48
2021/04/13 05:18:11;;;;;;;11.30;2.30;;;2.40;91.10;;;;;;5033726;28;20095;-47
2021/04/13 05:20:37;;;;;;;16.00;2.30;;;2.40;91.00;;;;;;5048299;28;20041;-47
2021/04/13 05:23:03;;;;;;;11.70;2.40;;;2.50;91.00;;;;;;5047643;28;20432;-47
2021/04/13 05:25:29;;;;;;;12.50;2.30;;;2.50;91.00;;;;;;5049634;28;20521;-48
2021/04/13 05:27:55;;;;;;;9.52;2.45;;;2.60;91.00;;;;;;5044977;28;20050;-48
2021/04/13 05:30:22;;;;;;;10.88;2.45;;;2.60;90.90;;;;;;5049879;28;20102;-48
2021/04/13 05:32:49;;;;;;;18.02;2.50;;;2.60;90.90;;;;;;5050359;28;20033;-47
2021/04/13 05:35:17;;;;;;;12.95;2.17;;;2.70;91.00;;;;;;5049997;28;20521;-47
2021/04/13 05:37:42;;;;;;;9.98;2.83;;;2.80;91.10;;;;;;5035856;28;20049;-49
2021/04/13 05:40:14;;;;;;;14.15;2.60;;;2.90;90.90;;;;;;5042571;28;20064;-48
2021/04/13 05:42:41;;;;;;;8.35;1.85;;;3.00;90.80;;;;;;5042920;28;20045;-47
2021/04/13 05:45:10;;;;;;;16.55;2.42;;;3.10;90.60;;;;;;5053393;28;20108;-50
2021/04/13 05:47:37;;;;;;;12.95;2.00;;;3.30;90.30;;;;;;5049967;28;20079;-48
2021/04/13 05:50:05;;;;;;;9.77;2.30;;;3.50;90.10;;;;;;5040041;28;20041;-47
2021/04/13 05:52:31;;;;;;;11.77;2.25;;;3.70;89.00;;;;;;5036912;28;20044;-50
2021/04/13 05:54:57;;;;;;;10.82;1.95;;;3.90;88.30;;;;;;5034320;28;20037;-50
2021/04/13 05:57:33;;;;;;;14.85;2.30;;;3.90;87.80;;;;;;5048151;28;20493;-49
2021/04/13 06:00:01;;;;;;;10.82;2.17;;;4.10;87.70;;;;;;5045935;28;20044;-48
2021/04/13 06:02:34;;;;;;;10.63;2.65;;;4.20;87.40;;;;;;5045887;28;20036;-47
2021/04/13 06:05:02;;;;;;;11.75;2.22;;;4.30;86.70;;;;;;5051046;28;20040;-48
2021/04/13 06:07:28;;;;;;;14.32;2.50;;;4.50;85.90;;;;;;5051501;28;20037;-47
2021/04/13 06:09:53;;;;;;;11.93;2.28;;;4.50;85.90;;;;;;5046822;28;20521;-48
2021/04/13 06:12:21;;;;;;;17.70;2.42;;;4.60;85.80;;;;;;5051277;28;20045;-48
2021/04/13 06:14:49;;;;;;;10.00;2.00;;;5.20;84.40;;;;;;5048258;28;20132;-48
2021/04/13 06:17:15;;;;;;;10.98;2.08;;;5.80;81.80;;;;;;5050368;28;20055;-48
2021/04/13 06:19:41;;;;;;;12.30;2.35;;;6.00;80.30;;;;;;5043912;28;20041;-51
2021/04/13 06:22:06;;;;;;;18.30;2.75;;;5.80;80.40;;;;;;5042900;28;20046;-50
2021/04/13 06:24:32;;;;;;;13.88;3.03;;;5.80;80.90;;;;;;5039304;28;20084;-50
2021/04/13 06:26:58;;;;;;;10.93;2.03;;;5.70;81.30;;;;;;5041533;28;20041;-49
2021/04/13 06:29:23;;;;;;;13.32;2.03;;;5.70;81.60;;;;;;5034419;28;20386;-51
2021/04/13 06:31:49;;;;;;;13.20;1.80;;;6.00;81.50;;;;;;5039027;28;20536;-48
2021/04/13 06:34:15;;;;;;;10.93;2.55;;;6.30;80.90;;;;;;5033588;28;20048;-50
2021/04/13 06:36:41;;;;;;;12.27;1.98;;;6.30;80.70;;;;;;5037790;28;20072;-49
2021/04/13 06:39:08;;;;;;;12.00;2.05;;;6.30;80.40;;;;;;5037144;28;20041;-50
2021/04/13 06:41:53;;;;;;;14.35;2.38;;;6.20;81.00;;;;;;5035675;28;20042;-48
2021/04/13 06:44:40;;;;;;;10.73;2.03;;;6.10;81.30;;;;;;5039401;28;20116;-48
2021/04/13 06:47:24;;;;;;;14.20;2.42;;;6.10;81.80;;;;;;5034941;28;20037;-48
2021/04/13 06:50:00;;;;;;;12.18;1.90;;;6.10;81.90;;;;;;5036603;28;20045;-51
2021/04/13 06:52:44;;;;;;;11.38;2.10;;;6.10;82.20;;;;;;5035989;28;20045;-50
2021/04/13 06:55:27;;;;;;;13.35;1.90;;;6.10;81.70;;;;;;5042225;28;20040;-48
2021/04/13 06:58:14;;;;;;;10.80;2.10;;;6.10;81.70;;;;;;5038306;28;20038;-50
2021/04/13 07:00:45;;;;;;;11.77;2.28;;;6.20;81.50;;;;;;5037025;28;20111;-51
2021/04/13 07:03:32;;;;;;;12.85;2.28;;;6.30;81.50;;;;;;5034857;28;20037;-48
2021/04/13 07:06:20;;;;;;;9.25;1.63;;;6.30;81.20;;;;;;5035533;28;20189;-47
2021/04/13 07:08:57;;;;;;;14.77;2.40;;;6.30;81.10;;;;;;5047906;28;20040;-48
2021/04/13 07:11:29;;;;;;;10.77;2.20;;;6.30;80.40;;;;;;5048351;28;20056;-50
2021/04/13 07:14:02;;;;;;;16.25;2.40;;;6.30;80.90;;;;;;5040772;28;20048;-50
2021/04/13 07:16:46;;;;;;;15.07;3.13;;;6.30;79.80;;;;;;5048029;28;20100;-48
2021/04/13 07:19:33;;;;;;;10.50;2.65;;;6.30;79.40;;;;;;5046734;28;20440;-49
2021/04/13 07:22:17;;;;;;;16.08;2.60;;;6.30;79.70;;;;;;5043077;28;20091;-50
2021/04/13 07:25:09;;;;;;;14.68;2.80;;;6.40;79.30;;;;;;5038550;28;20068;-47
2021/04/13 07:28:01;;;;;;;15.90;3.37;;;6.40;78.40;;;;;;5048680;28;20050;-46
2021/04/13 07:30:45;;;;;;;9.05;2.78;;;6.50;78.90;;;;;;5043074;28;20374;-48
2021/04/13 07:33:15;;;;;;;17.35;3.22;;;6.60;77.70;;;;;;5048825;28;20033;-47
2021/04/13 07:35:41;;;;;;;12.68;3.25;;;6.60;77.80;;;;;;5049945;28;20171;-47
2021/04/13 07:38:30;;;;;;;12.48;2.72;;;6.70;76.80;;;;;;5046898;28;20072;-47
2021/04/13 07:41:21;;;;;;;17.08;2.60;;;6.70;77.00;;;;;;5050270;28;20053;-47
2021/04/13 07:43:54;;;;;;;10.95;2.25;;;6.80;77.40;;;;;;5041480;28;20068;-50
2021/04/13 07:46:58;;;;;;;9.98;2.30;;;6.80;76.60;;;;;;5048449;28;20055;-47
2021/04/13 07:49:36;;;;;;;9.20;1.98;;;7.00;77.20;;;;;;5035699;28;20746;-51
2021/04/13 07:52:26;;;;;;;13.52;1.70;;;7.10;75.00;;;;;;5036443;28;20096;-50
2021/04/13 07:55:05;;;;;;;9.07;2.08;;;7.20;74.40;;;;;;5040041;28;20037;-51
2021/04/13 07:58:01;;;;;;;7.95;1.85;;;7.20;75.10;;;;;;5036631;28;20052;-48
2021/04/13 08:00:36;;;;;;;8.40;1.80;;;7.20;73.50;;;;;;5038889;28;20514;-49
2021/04/13 08:03:20;;;;;;;9.25;1.70;;;7.20;73.40;;;;;;5047501;28;20040;-52
2021/04/13 08:05:49;;;;;;;6.75;1.23;;;7.20;73.70;;;;;;5043309;28;20040;-49
2021/04/13 08:08:36;;;;;;;6.43;1.35;;;7.30;72.00;;;;;;5043688;28;20055;-48
2021/04/13 08:11:17;;;;;;;7.25;1.17;;;7.40;71.20;;;;;;5047978;28;20044;-46
2021/04/13 08:13:46;;;;;;;9.43;1.90;;;7.50;71.20;;;;;;5047292;28;20417;-48
2021/04/13 08:16:32;;;;;;;4.13;1.20;;;7.60;70.50;;;;;;5035209;28;20147;-47
2021/04/13 08:19:23;;;;;;;10.18;2.13;;;7.60;66.90;;;;;;5037161;28;20049;-47
2021/04/13 08:22:15;;;;;;;8.75;1.33;;;7.60;68.50;;;;;;5038702;28;20051;-51
2021/04/13 08:24:45;;;;;;;8.85;1.40;;;7.60;67.70;;;;;;5046231;28;20126;-48
2021/04/13 08:27:23;;;;;;;6.30;1.20;;;7.60;67.60;;;;;;5045378;28;20041;-51
2021/04/13 08:30:11;;;;;;;9.75;1.42;;;7.70;67.70;;;;;;5046336;28;20040;-49
2021/04/13 08:33:05;;;;;;;6.53;1.48;;;7.70;67.80;;;;;;5043265;28;20034;-50
2021/04/13 08:35:36;;;;;;;7.80;1.40;;;7.90;65.70;;;;;;5039212;28;20128;-47
2021/04/13 08:38:40;;;;;;;5.00;1.00;;;8.00;65.20;;;;;;5043816;28;20036;-46
2021/04/13 08:41:07;;;;;;;5.85;1.20;;;7.90;65.00;;;;;;5044917;28;20049;-47
2021/04/13 08:43:44;;;;;;;4.55;1.17;;;7.90;64.70;;;;;;5052809;28;20087;-47
2021/04/13 08:46:13;;;;;;;5.32;1.40;;;8.00;64.90;;;;;;5043872;28;20045;-48
2021/04/13 08:48:57;;;;;;;7.90;1.42;;;8.00;64.10;;;;;;5050885;28;20043;-47
2021/04/13 08:51:42;;;;;;;5.07;1.02;;;8.00;61.60;;;;;;5043566;28;20519;-48
2021/04/13 08:54:08;;;;;;;3.40;1.10;;;8.10;60.60;;;;;;5046043;28;20497;-50
2021/04/13 08:57:17;;;;;;;6.10;1.23;;;8.20;60.80;;;;;;5047133;28;20044;-51
2021/04/13 08:59:55;;;;;;;7.47;1.67;;;8.40;59.00;;;;;;5040114;28;20453;-47
2021/04/13 09:02:26;;;;;;;8.77;1.70;;;8.50;58.50;;;;;;5043058;28;20448;-48
2021/04/13 09:05:20;;;;;;;8.18;1.20;;;8.60;60.80;;;;;;5043361;28;20087;-48
2021/04/13 09:07:46;;;;;;;3.08;0.70;;;8.80;59.80;;;;;;5040969;28;20041;-50
2021/04/13 09:10:35;;;;;;;7.75;1.75;;;8.90;59.80;;;;;;5043067;28;20029;-47
2021/04/13 09:13:23;;;;;;;4.80;1.30;;;9.00;62.00;;;;;;5043276;28;20041;-47
2021/04/13 09:16:01;;;;;;;5.15;1.20;;;8.80;62.40;;;;;;5047039;28;20037;-47
2021/04/13 09:18:45;;;;;;;5.78;1.23;;;8.40;64.00;;;;;;5049999;28;20045;-48
2021/04/13 09:21:35;;;;;;;5.28;1.15;;;8.10;65.90;;;;;;5046940;28;20548;-47
2021/04/13 09:24:35;;;;;;;7.57;1.30;;;7.90;65.60;;;;;;5042455;28;20045;-47
2021/04/13 09:27:09;;;;;;;7.45;1.25;;;7.80;65.60;;;;;;5048798;28;20120;-49
2021/04/13 09:29:47;;;;;;;6.20;1.52;;;7.80;65.60;;;;;;5046841;28;20041;-47
2021/04/13 09:32:25;;;;;;;8.52;1.30;;;8.00;66.10;;;;;;5040920;28;20064;-47
2021/04/13 09:35:12;;;;;;;8.55;1.45;;;8.10;65.30;;;;;;5050077;28;20028;-47
2021/04/13 09:38:11;;;;;;;5.63;1.15;;;8.30;64.10;;;;;;5048547;28;20056;-47
2021/04/13 09:40:39;;;;;;;6.07;1.20;;;8.40;63.90;;;;;;5033918;28;20132;-46
2021/04/13 09:43:32;;;;;;;4.95;1.30;;;8.60;62.60;;;;;;5053054;28;20412;-48
2021/04/13 09:46:07;;;;;;;6.05;1.50;;;8.70;61.90;;;;;;5052466;28;20098;-47
2021/04/13 09:49:03;;;;;;;5.13;1.27;;;8.80;60.60;;;;;;5047532;28;20035;-46
2021/04/13 09:52:07;;;;;;;10.32;1.40;;;8.90;61.00;;;;;;5043184;28;21620;-49
2021/04/13 09:54:42;;;;;;;8.57;1.20;;;9.10;60.80;;;;;;5030458;28;20530;-48
2021/04/13 09:57:49;;;;;;;8.18;1.30;;;9.30;59.60;;;;;;5034111;28;20045;-47
2021/04/13 10:00:30;;;;;;;6.18;1.45;;;9.40;57.90;;;;;;4995941;28;20053;-48
2021/04/13 10:03:11;;;;;;;7.03;1.30;;;9.20;59.40;;;;;;5046948;28;20443;-49
2021/04/13 10:05:40;;;;;;;5.60;1.20;;;8.60;63.50;;;;;;5048705;28;20060;-48
2021/04/13 10:08:15;;;;;;;7.00;1.45;;;8.10;66.40;;;;;;5049748;28;20044;-48
2021/04/13 10:11:17;;;;;;;7.00;1.20;;;7.90;67.50;;;;;;5045605;28;20394;-47
2021/04/13 10:14:32;;;;;;;3.08;1.00;;;7.70;68.30;;;;;;5048549;28;20041;-47
2021/04/13 10:17:29;;;;;;;4.40;1.20;;;7.60;69.40;;;;;;5049242;28;20063;-48
2021/04/13 10:20:30;;;;;;;3.00;1.23;;;7.60;71.80;;;;;;5052778;28;20124;-47
2021/04/13 10:23:16;;;;;;;3.67;1.13;;;7.60;70.40;;;;;;5052595;28;20390;-47
2021/04/13 10:26:06;;;;;;;5.18;1.67;;;7.60;70.40;;;;;;5041815;28;20041;-48
2021/04/13 10:29:19;;;;;;;6.75;1.45;;;7.70;68.20;;;;;;5043971;28;20150;-48
2021/04/13 10:32:19;;;;;;;5.18;0.90;;;7.80;68.70;;;;;;5044034;28;20045;-47
2021/04/13 10:35:17;;;;;;;9.80;1.50;;;8.20;68.50;;;;;;5048035;28;20067;-47
2021/04/13 10:38:04;;;;;;;8.20;1.45;;;8.50;68.30;;;;;;5049888;28;20044;-47
2021/04/13 10:40:54;;;;;;;3.80;0.90;;;8.70;66.40;;;;;;5048633;28;20142;-47
2021/04/13 10:43:56;;;;;;;2.85;0.88;;;8.90;63.40;;;;;;5056786;28;20047;-47
2021/04/13 10:46:41;;;;;;;4.47;1.15;;;8.90;59.20;;;;;;5036387;28;20107;-49
2021/04/13 10:49:20;;;;;;;2.25;0.80;;;8.90;59.60;;;;;;5040354;28;20037;-48
2021/04/13 10:52:21;;;;;;;9.63;1.25;;;9.10;60.20;;;;;;5043765;28;20084;-47
2021/04/13 10:55:11;;;;;;;5.43;0.77;;;9.40;58.20;;;;;;5043402;28;20040;-46
2021/04/13 10:58:06;;;;;;;2.67;0.77;;;9.50;57.80;;;;;;5037079;28;20033;-52
2021/04/13 11:01:09;;;;;;;4.80;1.23;;;9.70;57.10;;;;;;5035928;28;20139;-50
2021/04/13 11:04:09;;;;;;;3.95;0.98;;;9.80;58.60;;;;;;5037942;28;20053;-50
2021/04/13 11:07:14;;;;;;;5.70;1.30;;;9.70;57.50;;;;;;5037386;28;20049;-52
2021/04/13 11:09:49;;;;;;;6.85;1.27;;;9.50;55.30;;;;;;5039684;28;20120;-47
2021/04/13 11:12:51;;;;;;;11.10;1.20;;;9.10;54.70;;;;;;5038006;28;20065;-51
2021/04/13 11:15:53;;;;;;;3.83;0.90;;;9.00;55.50;;;;;;5034790;28;20508;-49
2021/04/13 11:18:33;;;;;;;5.60;1.23;;;9.20;56.30;;;;;;5040753;28;20453;-49
2021/04/13 11:21:40;;;;;;;5.80;0.82;;;9.40;54.30;;;;;;5048749;28;20067;-49
2021/04/13 11:24:32;;;;;;;4.10;0.80;;;9.60;51.60;;;;;;5043552;28;20045;-47
2021/04/13 11:27:28;;;;;;;2.35;0.93;;;9.80;52.20;;;;;;5047069;28;20141;-47
2021/04/13 11:30:29;;;;;;;3.90;1.00;;;10.00;55.10;;;;;;5042785;28;20141;-48
2021/04/13 11:33:19;;;;;;;9.63;1.23;;;9.90;54.30;;;;;;5047083;28;20041;-46
2021/04/13 11:35:52;;;;;;;5.30;1.42;;;9.50;56.70;;;;;;5051037;28;20037;-48
2021/04/13 11:38:46;;;;;;;5.15;1.00;;;9.10;59.90;;;;;;5041932;28;20048;-46
2021/04/13 11:41:17;;;;;;;7.97;1.40;;;8.70;59.70;;;;;;5034351;28;20050;-48
2021/04/13 11:44:09;;;;;;;9.83;1.30;;;8.40;60.60;;;;;;5043346;28;20125;-48
2021/04/13 11:46:47;;;;;;;7.95;1.17;;;8.20;62.70;;;;;;5050091;28;20311;-48
2021/04/13 11:49:20;;;;;;;5.13;1.20;;;8.20;63.80;;;;;;5047466;28;20080;-48
2021/04/13 11:52:04;;;;;;;5.35;1.20;;;8.40;64.10;;;;;;5046462;28;20105;-47
2021/04/13 11:54:43;;;;;;;6.03;1.30;;;8.40;63.60;;;;;;5050906;28;20052;-50
2021/04/13 11:57:13;;;;;;;5.68;1.30;;;8.40;62.30;;;;;;5046189;28;20049;-47
2021/04/13 11:59:39;;;;;;;5.82;1.70;;;8.40;60.90;;;;;;5052782;28;20115;-48
2021/04/13 12:02:28;;;;;;;3.45;1.15;;;8.40;60.50;;;;;;5048254;28;20124;-47
2021/04/13 12:04:56;;;;;;;6.03;1.23;;;8.60;61.80;;;;;;5050566;28;20045;-49
2021/04/13 12:07:49;;;;;;;7.18;1.10;;;8.90;61.10;;;;;;5047802;28;20045;-47
2021/04/13 12:10:29;;;;;;;5.55;1.08;;;9.10;61.20;;;;;;5048858;28;20090;-47
2021/04/13 12:12:55;;;;;;;7.25;1.63;;;9.40;59.60;;;;;;5050964;28;20047;-47
2021/04/13 12:15:21;;;;;;;5.63;1.35;;;9.50;59.10;;;;;;5045114;28;20072;-49
2021/04/13 12:17:51;;;;;;;4.97;1.10;;;9.60;59.70;;;;;;5044502;28;20592;-49
2021/04/13 12:20:27;;;;;;;5.55;1.10;;;9.80;58.30;;;;;;5050365;28;20072;-48
2021/04/13 12:23:02;;;;;;;3.88;0.88;;;9.90;58.40;;;;;;5045974;28;20067;-47
2021/04/13 12:25:42;;;;;;;4.43;0.98;;;9.90;55.90;;;;;;5042248;28;20049;-51
2021/04/13 12:28:10;;;;;;;8.60;1.27;;;9.90;59.40;;;;;;5044925;28;20042;-48
2021/04/13 12:30:42;;;;;;;7.60;1.20;;;10.10;59.20;;;;;;5047341;28;20116;-47
2021/04/13 12:33:28;;;;;;;3.90;1.10;;;10.20;57.30;;;;;;5051604;28;20037;-48
2021/04/13 12:36:02;;;;;;;5.25;1.13;;;10.30;57.40;;;;;;5041689;28;20299;-49
2021/04/13 12:38:46;;;;;;;2.53;0.93;;;10.10;55.90;;;;;;5049416;28;20120;-48
2021/04/13 12:41:25;;;;;;;6.35;0.95;;;10.00;54.30;;;;;;5050196;28;20140;-48
2021/04/13 12:43:58;;;;;;;4.75;1.42;;;9.70;52.60;;;;;;5043729;28;20104;-49
2021/04/13 12:46:32;;;;;;;4.20;1.20;;;9.50;53.40;;;;;;5042925;28;20786;-51
2021/04/13 12:49:15;;;;;;;4.28;0.90;;;9.30;52.90;;;;;;5049322;28;20041;-50
2021/04/13 12:51:50;;;;;;;4.55;0.93;;;9.20;53.20;;;;;;5038445;28;20041;-48
2021/04/13 12:54:31;;;;;;;4.90;1.33;;;9.40;53.20;;;;;;5035325;28;20060;-51
2021/04/13 12:57:20;;;;;;;5.00;1.90;;;9.60;52.80;;;;;;5034644;28;20609;-48
2021/04/13 12:59:48;;;;;;;5.22;1.10;;;9.70;49.70;;;;;;5033306;28;20371;-49
2021/04/13 13:02:38;;;;;;;2.78;0.50;;;9.90;52.30;;;;;;5031974;28;20041;-49
2021/04/13 13:05:27;;;;;;;3.00;0.90;;;10.00;50.80;;;;;;5039875;28;20536;-49
2021/04/13 13:07:57;;;;;;;5.25;0.90;;;10.00;49.40;;;;;;5034082;28;20540;-48
2021/04/13 13:10:51;;;;;;;4.20;1.00;;;9.90;49.30;;;;;;5041729;28;20045;-51
2021/04/13 13:13:22;;;;;;;5.22;1.30;;;9.70;49.90;;;;;;5033458;28;20512;-51
2021/04/13 13:15:49;;;;;;;3.42;0.98;;;9.60;51.80;;;;;;5037673;28;20494;-49
2021/04/13 13:18:30;;;;;;;2.05;0.80;;;9.60;52.70;;;;;;5036219;28;20501;-50
2021/04/13 13:21:10;;;;;;;4.18;0.60;;;9.50;53.10;;;;;;5030716;28;20545;-48
2021/04/13 13:23:46;;;;;;;3.30;0.80;;;9.30;51.10;;;;;;5036598;28;20045;-51
2021/04/13 13:26:20;;;;;;;1.90;0.43;;;9.20;51.90;;;;;;5040569;28;20413;-48
2021/04/13 13:28:46;;;;;;;2.30;0.73;;;9.10;52.80;;;;;;5048122;28;20048;-48
2021/04/13 13:31:16;;;;;;;3.17;0.68;;;9.00;54.10;;;;;;5034474;28;20480;-51
2021/04/13 13:33:44;;;;;;;3.58;0.90;;;9.10;53.40;;;;;;5040996;28;20036;-48
2021/04/13 13:36:11;;;;;;;3.78;0.95;;;9.20;53.50;;;;;;5048456;28;20033;-50
2021/04/13 13:38:39;;;;;;;4.22;1.00;;;9.30;52.40;;;;;;5047215;28;20056;-47
2021/04/13 13:41:06;;;;;;;4.93;0.93;;;9.20;51.90;;;;;;5038413;28;20040;-51
2021/04/13 13:43:34;;;;;;;3.88;0.95;;;9.10;52.20;;;;;;5038274;28;20784;-49
2021/04/13 13:46:32;;;;;;;4.45;0.80;;;9.00;52.40;;;;;;5047804;28;20037;-51
2021/04/13 13:49:40;;;;;;;2.30;0.75;;;8.90;53.20;;;;;;5048383;28;20052;-51
2021/04/13 13:52:44;;;;;;;7.78;1.35;;;8.90;53.50;;;;;;5037566;28;20551;-50
2021/04/13 13:55:24;;;;;;;3.40;0.70;;;9.00;54.50;;;;;;5035368;28;20037;-48
2021/04/13 13:57:59;;;;;;;5.18;0.80;;;9.30;54.60;;;;;;5049545;28;20044;-49